sensor_id;sensor_type;location;lat;lon;timestamp;P1;durP1;ratioP1;P2;durP2;ratioP2
3781;SDS011;6881;49.962;7.718;2023-06-24T00:01:51;6.63;;;6.03;;
3781;SDS011;6881;49.962;7.718;2023-06-24T00:04:16;5.80;;;5.23;;
3781;SDS011;6881;49.962;7.718;2023-06-24T00:06:44;6.80;;;5.87;;
3781;SDS011;6881;49.962;7.718;2023-06-24T00:09:09;6.03;;;5.50;;
3781;SDS011;6881;49.962;7.718;2023-06-24T00:11:34;5.53;;;5.03;;
3781;SDS011;6881;49.962;7.718;2023-06-24T00:14:00;6.63;;;5.90;;
3781;SDS011;6881;49.962;7.718;2023-06-24T00:16:25;6.50;;;5.90;;
3781;SDS011;6881;49.962;7.718;2023-06-24T00:18:54;7.07;;;5.77;;
3781;SDS011;6881;49.962;7.718;2023-06-24T00:21:23;6.27;;;5.63;;
3781;SDS011;6881;49.962;7.718;2023-06-24T00:23:54;6.57;;;5.90;;
3781;SDS011;6881;49.962;7.718;2023-06-24T00:26:20;5.93;;;5.30;;
3781;SDS011;6881;49.962;7.718;2023-06-24T00:28:45;6.60;;;5.90;;
3781;SDS011;6881;49.962;7.718;2023-06-24T00:31:10;6.17;;;5.30;;
3781;SDS011;6881;49.962;7.718;2023-06-24T00:33:36;6.03;;;4.67;;
3781;SDS011;6881;49.962;7.718;2023-06-24T00:36:02;6.67;;;5.97;;
3781;SDS011;6881;49.962;7.718;2023-06-24T00:38:27;7.73;;;5.27;;
3781;SDS011;6881;49.962;7.718;2023-06-24T00:40:57;6.47;;;5.87;;
3781;SDS011;6881;49.962;7.718;2023-06-24T00:43:23;8.57;;;6.10;;
3781;SDS011;6881;49.962;7.718;2023-06-24T00:45:48;7.30;;;5.93;;
3781;SDS011;6881;49.962;7.718;2023-06-24T00:48:14;5.90;;;4.87;;
3781;SDS011;6881;49.962;7.718;2023-06-24T00:50:39;7.37;;;6.67;;
3781;SDS011;6881;49.962;7.718;2023-06-24T00:53:07;6.47;;;5.10;;
3781;SDS011;6881;49.962;7.718;2023-06-24T00:55:32;7.00;;;6.30;;
3781;SDS011;6881;49.962;7.718;2023-06-24T00:57:58;8.10;;;6.50;;
3781;SDS011;6881;49.962;7.718;2023-06-24T01:00:24;6.73;;;5.90;;
3781;SDS011;6881;49.962;7.718;2023-06-24T01:02:51;7.33;;;5.90;;
3781;SDS011;6881;49.962;7.718;2023-06-24T01:05:17;8.37;;;7.27;;
3781;SDS011;6881;49.962;7.718;2023-06-24T01:07:42;7.33;;;5.93;;
3781;SDS011;6881;49.962;7.718;2023-06-24T01:10:09;6.20;;;5.60;;
3781;SDS011;6881;49.962;7.718;2023-06-24T01:12:37;6.37;;;5.77;;
3781;SDS011;6881;49.962;7.718;2023-06-24T01:15:04;7.47;;;6.20;;
3781;SDS011;6881;49.962;7.718;2023-06-24T01:17:35;9.60;;;5.67;;
3781;SDS011;6881;49.962;7.718;2023-06-24T01:20:03;7.20;;;6.50;;
3781;SDS011;6881;49.962;7.718;2023-06-24T01:25:29;6.70;;;6.10;;
3781;SDS011;6881;49.962;7.718;2023-06-24T01:37:11;6.63;;;6.03;;
3781;SDS011;6881;49.962;7.718;2023-06-24T01:42:25;7.63;;;6.83;;
3781;SDS011;6881;49.962;7.718;2023-06-24T01:44:52;7.23;;;6.53;;
3781;SDS011;6881;49.962;7.718;2023-06-24T01:47:21;7.60;;;6.80;;
3781;SDS011;6881;49.962;7.718;2023-06-24T01:49:48;6.80;;;6.10;;
3781;SDS011;6881;49.962;7.718;2023-06-24T01:52:14;6.37;;;5.87;;
3781;SDS011;6881;49.962;7.718;2023-06-24T01:54:41;7.20;;;6.50;;
3781;SDS011;6881;49.962;7.718;2023-06-24T01:57:07;7.50;;;6.80;;
3781;SDS011;6881;49.962;7.718;2023-06-24T01:59:33;6.57;;;5.90;;
3781;SDS011;6881;49.962;7.718;2023-06-24T02:02:00;7.03;;;6.33;;
3781;SDS011;6881;49.962;7.718;2023-06-24T02:04:27;7.53;;;6.80;;
3781;SDS011;6881;49.962;7.718;2023-06-24T02:06:55;9.47;;;7.10;;
3781;SDS011;6881;49.962;7.718;2023-06-24T02:09:23;6.27;;;5.67;;
3781;SDS011;6881;49.962;7.718;2023-06-24T02:11:50;7.00;;;6.30;;
3781;SDS011;6881;49.962;7.718;2023-06-24T02:14:15;7.53;;;6.77;;
3781;SDS011;6881;49.962;7.718;2023-06-24T02:16:41;8.73;;;7.13;;
3781;SDS011;6881;49.962;7.718;2023-06-24T02:19:07;8.20;;;6.93;;
3781;SDS011;6881;49.962;7.718;2023-06-24T02:21:34;6.93;;;6.23;;
3781;SDS011;6881;49.962;7.718;2023-06-24T02:24:00;7.00;;;6.30;;
3781;SDS011;6881;49.962;7.718;2023-06-24T02:26:26;9.53;;;6.50;;
3781;SDS011;6881;49.962;7.718;2023-06-24T02:28:51;8.37;;;7.00;;
3781;SDS011;6881;49.962;7.718;2023-06-24T02:31:17;7.60;;;6.77;;
3781;SDS011;6881;49.962;7.718;2023-06-24T02:33:42;8.37;;;7.47;;
3781;SDS011;6881;49.962;7.718;2023-06-24T02:36:08;9.40;;;7.30;;
3781;SDS011;6881;49.962;7.718;2023-06-24T02:38:33;6.70;;;6.10;;
3781;SDS011;6881;49.962;7.718;2023-06-24T02:40:58;8.07;;;7.27;;
3781;SDS011;6881;49.962;7.718;2023-06-24T02:43:25;7.93;;;7.13;;
3781;SDS011;6881;49.962;7.718;2023-06-24T02:45:50;9.00;;;7.00;;
3781;SDS011;6881;49.962;7.718;2023-06-24T02:48:17;9.77;;;7.30;;
3781;SDS011;6881;49.962;7.718;2023-06-24T02:50:43;8.87;;;7.60;;
3781;SDS011;6881;49.962;7.718;2023-06-24T02:53:10;7.53;;;6.83;;
3781;SDS011;6881;49.962;7.718;2023-06-24T02:55:36;7.47;;;6.77;;
3781;SDS011;6881;49.962;7.718;2023-06-24T02:58:02;8.57;;;7.67;;
3781;SDS011;6881;49.962;7.718;2023-06-24T03:00:28;10.33;;;7.30;;
3781;SDS011;6881;49.962;7.718;2023-06-24T03:02:58;7.20;;;6.50;;
3781;SDS011;6881;49.962;7.718;2023-06-24T03:05:25;9.40;;;7.60;;
3781;SDS011;6881;49.962;7.718;2023-06-24T03:07:50;7.20;;;6.50;;
3781;SDS011;6881;49.962;7.718;2023-06-24T03:10:16;9.17;;;8.03;;
3781;SDS011;6881;49.962;7.718;2023-06-24T03:12:41;7.13;;;6.43;;
3781;SDS011;6881;49.962;7.718;2023-06-24T03:15:07;6.97;;;6.17;;
3781;SDS011;6881;49.962;7.718;2023-06-24T03:17:34;6.93;;;6.23;;
3781;SDS011;6881;49.962;7.718;2023-06-24T03:19:59;8.20;;;6.57;;
3781;SDS011;6881;49.962;7.718;2023-06-24T03:22:25;7.67;;;6.90;;
3781;SDS011;6881;49.962;7.718;2023-06-24T03:24:50;8.50;;;6.93;;
3781;SDS011;6881;49.962;7.718;2023-06-24T03:27:18;8.80;;;6.30;;
3781;SDS011;6881;49.962;7.718;2023-06-24T03:29:43;7.93;;;7.13;;
3781;SDS011;6881;49.962;7.718;2023-06-24T03:32:09;13.20;;;5.80;;
3781;SDS011;6881;49.962;7.718;2023-06-24T03:34:34;8.17;;;7.00;;
3781;SDS011;6881;49.962;7.718;2023-06-24T03:37:00;6.93;;;5.73;;
3781;SDS011;6881;49.962;7.718;2023-06-24T03:39:26;7.77;;;7.10;;
3781;SDS011;6881;49.962;7.718;2023-06-24T03:41:51;6.60;;;6.00;;
3781;SDS011;6881;49.962;7.718;2023-06-24T03:44:16;6.87;;;6.17;;
3781;SDS011;6881;49.962;7.718;2023-06-24T03:46:42;7.60;;;6.87;;
3781;SDS011;6881;49.962;7.718;2023-06-24T03:49:07;7.53;;;6.60;;
3781;SDS011;6881;49.962;7.718;2023-06-24T03:51:33;8.77;;;7.40;;
3781;SDS011;6881;49.962;7.718;2023-06-24T03:53:58;7.37;;;6.67;;
3781;SDS011;6881;49.962;7.718;2023-06-24T03:56:24;8.07;;;6.50;;
3781;SDS011;6881;49.962;7.718;2023-06-24T03:58:49;6.97;;;5.80;;
3781;SDS011;6881;49.962;7.718;2023-06-24T04:01:14;7.10;;;6.37;;
3781;SDS011;6881;49.962;7.718;2023-06-24T04:03:42;8.47;;;6.23;;
3781;SDS011;6881;49.962;7.718;2023-06-24T04:06:08;8.07;;;7.23;;
3781;SDS011;6881;49.962;7.718;2023-06-24T04:08:33;7.07;;;6.37;;
3781;SDS011;6881;49.962;7.718;2023-06-24T04:10:58;6.83;;;5.80;;
3781;SDS011;6881;49.962;7.718;2023-06-24T04:13:28;8.90;;;6.70;;
3781;SDS011;6881;49.962;7.718;2023-06-24T04:15:54;6.83;;;6.00;;
3781;SDS011;6881;49.962;7.718;2023-06-24T04:18:19;6.57;;;5.70;;
3781;SDS011;6881;49.962;7.718;2023-06-24T04:20:45;6.47;;;5.87;;
3781;SDS011;6881;49.962;7.718;2023-06-24T04:23:11;9.50;;;6.47;;
3781;SDS011;6881;49.962;7.718;2023-06-24T04:25:39;5.80;;;5.20;;
3781;SDS011;6881;49.962;7.718;2023-06-24T04:28:04;6.73;;;6.10;;
3781;SDS011;6881;49.962;7.718;2023-06-24T04:30:30;6.97;;;6.20;;
3781;SDS011;6881;49.962;7.718;2023-06-24T04:32:56;6.53;;;5.93;;
3781;SDS011;6881;49.962;7.718;2023-06-24T04:35:21;6.33;;;5.83;;
3781;SDS011;6881;49.962;7.718;2023-06-24T04:37:46;10.77;;;6.37;;
3781;SDS011;6881;49.962;7.718;2023-06-24T04:40:14;7.23;;;6.40;;
3781;SDS011;6881;49.962;7.718;2023-06-24T04:42:39;7.93;;;7.17;;
3781;SDS011;6881;49.962;7.718;2023-06-24T04:45:05;7.10;;;6.10;;
3781;SDS011;6881;49.962;7.718;2023-06-24T04:47:30;6.30;;;5.70;;
3781;SDS011;6881;49.962;7.718;2023-06-24T04:49:56;6.97;;;5.97;;
3781;SDS011;6881;49.962;7.718;2023-06-24T04:52:23;9.00;;;5.93;;
3781;SDS011;6881;49.962;7.718;2023-06-24T04:54:48;6.17;;;5.57;;
3781;SDS011;6881;49.962;7.718;2023-06-24T04:57:23;6.63;;;6.03;;
3781;SDS011;6881;49.962;7.718;2023-06-24T04:59:51;5.97;;;5.40;;
3781;SDS011;6881;49.962;7.718;2023-06-24T05:02:16;7.63;;;6.10;;
3781;SDS011;6881;49.962;7.718;2023-06-24T05:04:41;6.80;;;5.27;;
3781;SDS011;6881;49.962;7.718;2023-06-24T05:07:07;5.63;;;5.13;;
3781;SDS011;6881;49.962;7.718;2023-06-24T05:09:32;6.10;;;5.50;;
3781;SDS011;6881;49.962;7.718;2023-06-24T05:11:57;5.30;;;4.80;;
3781;SDS011;6881;49.962;7.718;2023-06-24T05:14:23;5.60;;;5.13;;
3781;SDS011;6881;49.962;7.718;2023-06-24T05:16:48;5.73;;;5.23;;
3781;SDS011;6881;49.962;7.718;2023-06-24T05:19:13;6.57;;;5.97;;
3781;SDS011;6881;49.962;7.718;2023-06-24T05:21:39;5.87;;;5.33;;
3781;SDS011;6881;49.962;7.718;2023-06-24T05:24:04;5.10;;;4.70;;
3781;SDS011;6881;49.962;7.718;2023-06-24T05:26:30;5.23;;;4.73;;
3781;SDS011;6881;49.962;7.718;2023-06-24T05:28:55;5.97;;;5.00;;
3781;SDS011;6881;49.962;7.718;2023-06-24T05:31:20;5.47;;;4.97;;
3781;SDS011;6881;49.962;7.718;2023-06-24T05:33:46;5.90;;;4.97;;
3781;SDS011;6881;49.962;7.718;2023-06-24T05:36:11;5.30;;;4.90;;
3781;SDS011;6881;49.962;7.718;2023-06-24T05:38:36;5.87;;;5.27;;
3781;SDS011;6881;49.962;7.718;2023-06-24T05:41:02;5.37;;;4.53;;
3781;SDS011;6881;49.962;7.718;2023-06-24T05:43:27;5.43;;;4.93;;
3781;SDS011;6881;49.962;7.718;2023-06-24T05:45:53;6.03;;;5.27;;
3781;SDS011;6881;49.962;7.718;2023-06-24T05:48:18;5.43;;;4.93;;
3781;SDS011;6881;49.962;7.718;2023-06-24T05:50:43;5.10;;;4.70;;
3781;SDS011;6881;49.962;7.718;2023-06-24T05:53:09;6.13;;;5.60;;
3781;SDS011;6881;49.962;7.718;2023-06-24T05:55:34;5.60;;;5.10;;
3781;SDS011;6881;49.962;7.718;2023-06-24T05:57:59;7.13;;;6.20;;
3781;SDS011;6881;49.962;7.718;2023-06-24T06:00:25;6.03;;;5.53;;
3781;SDS011;6881;49.962;7.718;2023-06-24T06:02:50;6.67;;;6.07;;
3781;SDS011;6881;49.962;7.718;2023-06-24T06:05:15;5.73;;;5.23;;
3781;SDS011;6881;49.962;7.718;2023-06-24T06:07:41;7.20;;;5.70;;
3781;SDS011;6881;49.962;7.718;2023-06-24T06:10:07;7.53;;;4.83;;
3781;SDS011;6881;49.962;7.718;2023-06-24T06:12:33;5.40;;;4.90;;
3781;SDS011;6881;49.962;7.718;2023-06-24T06:14:59;7.60;;;6.07;;
3781;SDS011;6881;49.962;7.718;2023-06-24T06:17:24;6.17;;;5.30;;
3781;SDS011;6881;49.962;7.718;2023-06-24T06:19:49;5.67;;;5.17;;
3781;SDS011;6881;49.962;7.718;2023-06-24T06:22:15;5.60;;;5.10;;
3781;SDS011;6881;49.962;7.718;2023-06-24T06:24:40;5.70;;;5.20;;
3781;SDS011;6881;49.962;7.718;2023-06-24T06:27:09;5.60;;;5.10;;
3781;SDS011;6881;49.962;7.718;2023-06-24T06:29:35;5.00;;;4.60;;
3781;SDS011;6881;49.962;7.718;2023-06-24T06:32:00;5.50;;;5.00;;
3781;SDS011;6881;49.962;7.718;2023-06-24T06:34:26;4.80;;;4.40;;
3781;SDS011;6881;49.962;7.718;2023-06-24T06:36:51;5.10;;;4.60;;
3781;SDS011;6881;49.962;7.718;2023-06-24T06:39:16;4.20;;;3.90;;
3781;SDS011;6881;49.962;7.718;2023-06-24T06:41:42;5.07;;;4.57;;
3781;SDS011;6881;49.962;7.718;2023-06-24T06:44:07;5.23;;;4.77;;
3781;SDS011;6881;49.962;7.718;2023-06-24T06:46:32;4.70;;;4.27;;
3781;SDS011;6881;49.962;7.718;2023-06-24T06:48:58;5.53;;;5.03;;
3781;SDS011;6881;49.962;7.718;2023-06-24T06:51:24;4.60;;;4.20;;
3781;SDS011;6881;49.962;7.718;2023-06-24T06:53:50;5.83;;;5.33;;
3781;SDS011;6881;49.962;7.718;2023-06-24T06:56:16;5.10;;;4.70;;
3781;SDS011;6881;49.962;7.718;2023-06-24T06:58:53;5.60;;;5.10;;
3781;SDS011;6881;49.962;7.718;2023-06-24T07:01:19;6.33;;;5.00;;
3781;SDS011;6881;49.962;7.718;2023-06-24T07:03:44;6.73;;;6.03;;
3781;SDS011;6881;49.962;7.718;2023-06-24T07:06:10;4.80;;;4.40;;
3781;SDS011;6881;49.962;7.718;2023-06-24T07:08:35;5.00;;;4.60;;
3781;SDS011;6881;49.962;7.718;2023-06-24T07:11:01;5.67;;;5.17;;
3781;SDS011;6881;49.962;7.718;2023-06-24T07:13:27;5.70;;;5.20;;
3781;SDS011;6881;49.962;7.718;2023-06-24T07:15:52;5.57;;;5.07;;
3781;SDS011;6881;49.962;7.718;2023-06-24T07:18:18;5.57;;;5.07;;
3781;SDS011;6881;49.962;7.718;2023-06-24T07:20:43;5.10;;;4.70;;
3781;SDS011;6881;49.962;7.718;2023-06-24T07:23:08;5.60;;;5.20;;
3781;SDS011;6881;49.962;7.718;2023-06-24T07:25:35;4.70;;;4.30;;
3781;SDS011;6881;49.962;7.718;2023-06-24T07:28:00;4.83;;;4.40;;
3781;SDS011;6881;49.962;7.718;2023-06-24T07:30:25;4.57;;;4.17;;
3781;SDS011;6881;49.962;7.718;2023-06-24T07:32:51;4.60;;;4.07;;
3781;SDS011;6881;49.962;7.718;2023-06-24T07:35:16;5.30;;;4.90;;
3781;SDS011;6881;49.962;7.718;2023-06-24T07:37:43;4.77;;;4.30;;
3781;SDS011;6881;49.962;7.718;2023-06-24T07:40:09;4.97;;;4.17;;
3781;SDS011;6881;49.962;7.718;2023-06-24T07:42:35;3.57;;;3.27;;
3781;SDS011;6881;49.962;7.718;2023-06-24T07:45:00;4.77;;;4.20;;
3781;SDS011;6881;49.962;7.718;2023-06-24T07:47:25;5.33;;;4.83;;
3781;SDS011;6881;49.962;7.718;2023-06-24T07:49:51;5.40;;;4.20;;
3781;SDS011;6881;49.962;7.718;2023-06-24T07:52:17;4.77;;;4.33;;
3781;SDS011;6881;49.962;7.718;2023-06-24T07:54:42;5.57;;;5.17;;
3781;SDS011;6881;49.962;7.718;2023-06-24T07:57:07;4.27;;;3.97;;
3781;SDS011;6881;49.962;7.718;2023-06-24T07:59:33;4.80;;;4.50;;
3781;SDS011;6881;49.962;7.718;2023-06-24T08:01:58;4.97;;;4.43;;
3781;SDS011;6881;49.962;7.718;2023-06-24T08:04:23;5.87;;;5.27;;
3781;SDS011;6881;49.962;7.718;2023-06-24T08:06:48;4.43;;;4.13;;
3781;SDS011;6881;49.962;7.718;2023-06-24T08:09:15;5.27;;;4.77;;
3781;SDS011;6881;49.962;7.718;2023-06-24T08:11:41;6.40;;;5.90;;
3781;SDS011;6881;49.962;7.718;2023-06-24T08:14:06;5.33;;;4.90;;
3781;SDS011;6881;49.962;7.718;2023-06-24T08:16:32;6.23;;;5.63;;
3781;SDS011;6881;49.962;7.718;2023-06-24T08:18:57;5.07;;;4.60;;
3781;SDS011;6881;49.962;7.718;2023-06-24T08:21:22;5.10;;;4.60;;
3781;SDS011;6881;49.962;7.718;2023-06-24T08:23:48;4.90;;;4.50;;
3781;SDS011;6881;49.962;7.718;2023-06-24T08:26:15;5.47;;;4.97;;
3781;SDS011;6881;49.962;7.718;2023-06-24T08:28:40;5.10;;;4.70;;
3781;SDS011;6881;49.962;7.718;2023-06-24T08:31:06;4.50;;;4.20;;
3781;SDS011;6881;49.962;7.718;2023-06-24T08:33:31;5.00;;;4.63;;
3781;SDS011;6881;49.962;7.718;2023-06-24T08:35:56;5.87;;;5.27;;
3781;SDS011;6881;49.962;7.718;2023-06-24T08:38:22;5.37;;;4.87;;
3781;SDS011;6881;49.962;7.718;2023-06-24T08:40:47;5.30;;;4.80;;
3781;SDS011;6881;49.962;7.718;2023-06-24T08:43:14;6.60;;;6.00;;
3781;SDS011;6881;49.962;7.718;2023-06-24T08:45:39;6.33;;;4.60;;
3781;SDS011;6881;49.962;7.718;2023-06-24T08:48:05;4.80;;;4.40;;
3781;SDS011;6881;49.962;7.718;2023-06-24T08:50:33;5.47;;;4.97;;
3781;SDS011;6881;49.962;7.718;2023-06-24T08:53:02;4.73;;;4.33;;
3781;SDS011;6881;49.962;7.718;2023-06-24T08:55:28;5.10;;;4.70;;
3781;SDS011;6881;49.962;7.718;2023-06-24T08:57:56;5.17;;;4.60;;
3781;SDS011;6881;49.962;7.718;2023-06-24T09:00:22;4.80;;;4.30;;
3781;SDS011;6881;49.962;7.718;2023-06-24T09:02:47;6.20;;;4.43;;
3781;SDS011;6881;49.962;7.718;2023-06-24T09:05:12;5.03;;;4.63;;
3781;SDS011;6881;49.962;7.718;2023-06-24T09:07:38;5.50;;;5.00;;
3781;SDS011;6881;49.962;7.718;2023-06-24T09:10:03;5.07;;;4.67;;
3781;SDS011;6881;49.962;7.718;2023-06-24T09:12:31;5.17;;;4.67;;
3781;SDS011;6881;49.962;7.718;2023-06-24T09:14:57;5.50;;;5.00;;
3781;SDS011;6881;49.962;7.718;2023-06-24T09:17:23;4.93;;;4.53;;
3781;SDS011;6881;49.962;7.718;2023-06-24T09:19:48;4.90;;;4.50;;
3781;SDS011;6881;49.962;7.718;2023-06-24T09:22:14;5.40;;;4.90;;
3781;SDS011;6881;49.962;7.718;2023-06-24T09:24:43;5.20;;;4.70;;
3781;SDS011;6881;49.962;7.718;2023-06-24T09:27:12;4.87;;;4.47;;
3781;SDS011;6881;49.962;7.718;2023-06-24T09:29:41;4.77;;;4.13;;
3781;SDS011;6881;49.962;7.718;2023-06-24T09:32:07;4.90;;;4.60;;
3781;SDS011;6881;49.962;7.718;2023-06-24T09:34:33;5.50;;;5.03;;
3781;SDS011;6881;49.962;7.718;2023-06-24T09:36:59;5.40;;;5.00;;
3781;SDS011;6881;49.962;7.718;2023-06-24T09:39:25;5.40;;;5.00;;
3781;SDS011;6881;49.962;7.718;2023-06-24T09:41:57;5.23;;;4.73;;
3781;SDS011;6881;49.962;7.718;2023-06-24T09:44:23;5.80;;;4.90;;
3781;SDS011;6881;49.962;7.718;2023-06-24T09:46:49;6.40;;;5.17;;
3781;SDS011;6881;49.962;7.718;2023-06-24T09:49:15;5.40;;;4.90;;
3781;SDS011;6881;49.962;7.718;2023-06-24T09:51:43;5.63;;;5.20;;
3781;SDS011;6881;49.962;7.718;2023-06-24T09:54:12;5.77;;;5.30;;
3781;SDS011;6881;49.962;7.718;2023-06-24T09:56:40;5.33;;;4.90;;
3781;SDS011;6881;49.962;7.718;2023-06-24T09:59:09;5.50;;;5.00;;
3781;SDS011;6881;49.962;7.718;2023-06-24T10:01:36;5.10;;;4.60;;
3781;SDS011;6881;49.962;7.718;2023-06-24T10:04:04;4.43;;;4.03;;
3781;SDS011;6881;49.962;7.718;2023-06-24T10:06:29;5.80;;;5.30;;
3781;SDS011;6881;49.962;7.718;2023-06-24T10:08:55;6.50;;;5.90;;
3781;SDS011;6881;49.962;7.718;2023-06-24T10:11:21;6.10;;;5.00;;
3781;SDS011;6881;49.962;7.718;2023-06-24T10:13:46;5.00;;;4.60;;
3781;SDS011;6881;49.962;7.718;2023-06-24T10:16:11;5.43;;;5.00;;
3781;SDS011;6881;49.962;7.718;2023-06-24T10:18:37;5.10;;;4.70;;
3781;SDS011;6881;49.962;7.718;2023-06-24T10:21:04;5.13;;;4.63;;
3781;SDS011;6881;49.962;7.718;2023-06-24T10:23:34;4.88;;;4.57;;
3781;SDS011;6881;49.962;7.718;2023-06-24T10:26:07;4.97;;;4.67;;
3781;SDS011;6881;49.962;7.718;2023-06-24T10:42:29;5.13;;;4.63;;
3781;SDS011;6881;49.962;7.718;2023-06-24T10:44:58;5.07;;;4.77;;
3781;SDS011;6881;49.962;7.718;2023-06-24T10:47:25;5.10;;;4.47;;
3781;SDS011;6881;49.962;7.718;2023-06-24T10:49:52;5.17;;;4.77;;
3781;SDS011;6881;49.962;7.718;2023-06-24T10:52:18;5.37;;;4.93;;
3781;SDS011;6881;49.962;7.718;2023-06-24T10:54:44;4.87;;;4.40;;
3781;SDS011;6881;49.962;7.718;2023-06-24T10:57:10;7.57;;;5.37;;
3781;SDS011;6881;49.962;7.718;2023-06-24T10:59:43;5.00;;;4.60;;
3781;SDS011;6881;49.962;7.718;2023-06-24T11:02:30;4.22;;;3.92;;
3781;SDS011;6881;49.962;7.718;2023-06-24T11:04:56;5.18;;;4.78;;
3781;SDS011;6881;49.962;7.718;2023-06-24T11:07:32;5.80;;;5.30;;
3781;SDS011;6881;49.962;7.718;2023-06-24T11:10:06;5.97;;;5.35;;
3781;SDS011;6881;49.962;7.718;2023-06-24T11:12:41;5.53;;;5.03;;
3781;SDS011;6881;49.962;7.718;2023-06-24T11:15:08;5.17;;;4.73;;
3781;SDS011;6881;49.962;7.718;2023-06-24T11:17:35;5.17;;;4.80;;
3781;SDS011;6881;49.962;7.718;2023-06-24T11:20:01;5.43;;;5.00;;
3781;SDS011;6881;49.962;7.718;2023-06-24T11:22:27;6.10;;;5.60;;
3781;SDS011;6881;49.962;7.718;2023-06-24T11:24:53;5.27;;;4.80;;
3781;SDS011;6881;49.962;7.718;2023-06-24T11:27:26;5.43;;;4.97;;
3781;SDS011;6881;49.962;7.718;2023-06-24T11:29:53;5.33;;;4.90;;
3781;SDS011;6881;49.962;7.718;2023-06-24T11:32:19;4.87;;;4.50;;
3781;SDS011;6881;49.962;7.718;2023-06-24T11:34:44;5.30;;;4.80;;
3781;SDS011;6881;49.962;7.718;2023-06-24T11:37:10;5.33;;;4.93;;
3781;SDS011;6881;49.962;7.718;2023-06-24T11:39:43;5.70;;;5.00;;
3781;SDS011;6881;49.962;7.718;2023-06-24T11:42:08;5.33;;;4.93;;
3781;SDS011;6881;49.962;7.718;2023-06-24T11:44:34;6.40;;;5.77;;
3781;SDS011;6881;49.962;7.718;2023-06-24T11:47:04;5.97;;;5.10;;
3781;SDS011;6881;49.962;7.718;2023-06-24T11:49:30;5.87;;;5.37;;
3781;SDS011;6881;49.962;7.718;2023-06-24T11:51:55;5.33;;;4.90;;
3781;SDS011;6881;49.962;7.718;2023-06-24T11:54:21;5.40;;;5.00;;
3781;SDS011;6881;49.962;7.718;2023-06-24T11:56:50;4.53;;;4.13;;
3781;SDS011;6881;49.962;7.718;2023-06-24T11:59:23;5.20;;;4.70;;
3781;SDS011;6881;49.962;7.718;2023-06-24T12:01:56;5.10;;;4.67;;
3781;SDS011;6881;49.962;7.718;2023-06-24T12:04:29;5.50;;;5.10;;
3781;SDS011;6881;49.962;7.718;2023-06-24T12:06:55;4.87;;;4.47;;
3781;SDS011;6881;49.962;7.718;2023-06-24T12:09:21;5.30;;;4.90;;
3781;SDS011;6881;49.962;7.718;2023-06-24T12:11:46;5.60;;;5.13;;
3781;SDS011;6881;49.962;7.718;2023-06-24T12:14:12;5.60;;;5.20;;
3781;SDS011;6881;49.962;7.718;2023-06-24T12:16:38;5.43;;;5.03;;
3781;SDS011;6881;49.962;7.718;2023-06-24T12:19:04;5.37;;;4.87;;
3781;SDS011;6881;49.962;7.718;2023-06-24T12:21:29;5.17;;;4.70;;
3781;SDS011;6881;49.962;7.718;2023-06-24T12:23:54;5.40;;;5.00;;
3781;SDS011;6881;49.962;7.718;2023-06-24T12:26:19;5.30;;;4.90;;
3781;SDS011;6881;49.962;7.718;2023-06-24T12:28:45;4.68;;;4.32;;
3781;SDS011;6881;49.962;7.718;2023-06-24T12:31:11;5.20;;;4.80;;
3781;SDS011;6881;49.962;7.718;2023-06-24T12:33:36;5.77;;;5.27;;
3781;SDS011;6881;49.962;7.718;2023-06-24T12:36:01;5.40;;;5.00;;
3781;SDS011;6881;49.962;7.718;2023-06-24T12:38:27;6.67;;;5.83;;
3781;SDS011;6881;49.962;7.718;2023-06-24T12:40:52;5.50;;;5.10;;
3781;SDS011;6881;49.962;7.718;2023-06-24T12:43:17;5.60;;;5.07;;
3781;SDS011;6881;49.962;7.718;2023-06-24T12:45:43;5.77;;;4.90;;
3781;SDS011;6881;49.962;7.718;2023-06-24T12:48:08;5.80;;;5.30;;
3781;SDS011;6881;49.962;7.718;2023-06-24T12:50:34;5.93;;;5.33;;
3781;SDS011;6881;49.962;7.718;2023-06-24T12:53:01;5.13;;;4.73;;
3781;SDS011;6881;49.962;7.718;2023-06-24T12:55:26;6.43;;;5.47;;
3781;SDS011;6881;49.962;7.718;2023-06-24T12:57:52;5.47;;;5.03;;
3781;SDS011;6881;49.962;7.718;2023-06-24T13:00:21;5.63;;;5.10;;
3781;SDS011;6881;49.962;7.718;2023-06-24T13:02:47;5.57;;;5.17;;
3781;SDS011;6881;49.962;7.718;2023-06-24T13:05:12;5.53;;;5.10;;
3781;SDS011;6881;49.962;7.718;2023-06-24T13:07:38;6.07;;;5.57;;
3781;SDS011;6881;49.962;7.718;2023-06-24T13:10:03;5.50;;;5.10;;
3781;SDS011;6881;49.962;7.718;2023-06-24T13:12:31;5.80;;;4.97;;
3781;SDS011;6881;49.962;7.718;2023-06-24T13:14:56;5.63;;;5.13;;
3781;SDS011;6881;49.962;7.718;2023-06-24T13:17:22;6.30;;;5.70;;
3781;SDS011;6881;49.962;7.718;2023-06-24T13:19:47;5.13;;;4.73;;
3781;SDS011;6881;49.962;7.718;2023-06-24T13:22:12;5.70;;;5.20;;
3781;SDS011;6881;49.962;7.718;2023-06-24T13:24:38;5.40;;;5.00;;
3781;SDS011;6881;49.962;7.718;2023-06-24T13:27:03;5.27;;;4.87;;
3781;SDS011;6881;49.962;7.718;2023-06-24T13:29:28;5.57;;;5.07;;
3781;SDS011;6881;49.962;7.718;2023-06-24T13:31:54;6.03;;;5.43;;
3781;SDS011;6881;49.962;7.718;2023-06-24T13:34:19;6.00;;;5.33;;
3781;SDS011;6881;49.962;7.718;2023-06-24T13:36:45;6.27;;;5.67;;
3781;SDS011;6881;49.962;7.718;2023-06-24T13:39:10;5.30;;;4.80;;
3781;SDS011;6881;49.962;7.718;2023-06-24T13:41:41;5.53;;;5.13;;
3781;SDS011;6881;49.962;7.718;2023-06-24T13:44:06;5.07;;;4.67;;
3781;SDS011;6881;49.962;7.718;2023-06-24T13:46:32;5.97;;;5.47;;
3781;SDS011;6881;49.962;7.718;2023-06-24T13:48:57;5.53;;;5.13;;
3781;SDS011;6881;49.962;7.718;2023-06-24T13:51:23;5.13;;;4.73;;
3781;SDS011;6881;49.962;7.718;2023-06-24T13:53:50;5.30;;;4.90;;
3781;SDS011;6881;49.962;7.718;2023-06-24T13:56:16;5.83;;;5.33;;
3781;SDS011;6881;49.962;7.718;2023-06-24T13:58:42;5.97;;;5.50;;
3781;SDS011;6881;49.962;7.718;2023-06-24T14:01:07;5.80;;;5.20;;
3781;SDS011;6881;49.962;7.718;2023-06-24T14:03:32;5.60;;;5.10;;
3781;SDS011;6881;49.962;7.718;2023-06-24T14:05:58;5.20;;;4.80;;
3781;SDS011;6881;49.962;7.718;2023-06-24T14:08:26;5.90;;;5.50;;
3781;SDS011;6881;49.962;7.718;2023-06-24T14:10:51;7.60;;;5.13;;
3781;SDS011;6881;49.962;7.718;2023-06-24T14:13:17;5.43;;;5.03;;
3781;SDS011;6881;49.962;7.718;2023-06-24T14:15:42;5.40;;;5.00;;
3781;SDS011;6881;49.962;7.718;2023-06-24T14:18:07;4.90;;;4.50;;
3781;SDS011;6881;49.962;7.718;2023-06-24T14:20:33;6.13;;;5.63;;
3781;SDS011;6881;49.962;7.718;2023-06-24T14:22:58;5.80;;;5.30;;
3781;SDS011;6881;49.962;7.718;2023-06-24T14:25:23;4.60;;;4.20;;
3781;SDS011;6881;49.962;7.718;2023-06-24T14:27:49;5.47;;;4.90;;
3781;SDS011;6881;49.962;7.718;2023-06-24T14:30:15;5.90;;;5.40;;
3781;SDS011;6881;49.962;7.718;2023-06-24T14:32:40;6.10;;;5.47;;
3781;SDS011;6881;49.962;7.718;2023-06-24T14:35:05;5.20;;;4.80;;
3781;SDS011;6881;49.962;7.718;2023-06-24T14:37:31;5.90;;;5.40;;
3781;SDS011;6881;49.962;7.718;2023-06-24T14:39:57;5.90;;;5.40;;
3781;SDS011;6881;49.962;7.718;2023-06-24T14:42:22;6.17;;;5.57;;
3781;SDS011;6881;49.962;7.718;2023-06-24T14:44:47;6.10;;;5.60;;
3781;SDS011;6881;49.962;7.718;2023-06-24T14:47:13;5.30;;;4.80;;
3781;SDS011;6881;49.962;7.718;2023-06-24T14:49:38;5.40;;;5.00;;
3781;SDS011;6881;49.962;7.718;2023-06-24T14:52:03;5.50;;;5.10;;
3781;SDS011;6881;49.962;7.718;2023-06-24T14:54:29;6.67;;;5.23;;
3781;SDS011;6881;49.962;7.718;2023-06-24T14:56:54;5.40;;;5.00;;
3781;SDS011;6881;49.962;7.718;2023-06-24T14:59:19;5.30;;;4.90;;
3781;SDS011;6881;49.962;7.718;2023-06-24T15:01:45;5.73;;;5.23;;
3781;SDS011;6881;49.962;7.718;2023-06-24T15:04:10;5.23;;;4.83;;
3781;SDS011;6881;49.962;7.718;2023-06-24T15:06:35;4.83;;;4.40;;
3781;SDS011;6881;49.962;7.718;2023-06-24T15:09:01;6.23;;;5.53;;
3781;SDS011;6881;49.962;7.718;2023-06-24T15:11:26;7.10;;;6.50;;
3781;SDS011;6881;49.962;7.718;2023-06-24T15:13:51;7.00;;;4.83;;
3781;SDS011;6881;49.962;7.718;2023-06-24T15:16:17;5.97;;;5.47;;
3781;SDS011;6881;49.962;7.718;2023-06-24T15:18:45;5.87;;;5.37;;
3781;SDS011;6881;49.962;7.718;2023-06-24T15:21:12;5.23;;;4.83;;
3781;SDS011;6881;49.962;7.718;2023-06-24T15:23:38;6.70;;;6.10;;
3781;SDS011;6881;49.962;7.718;2023-06-24T15:26:03;5.30;;;4.90;;
3781;SDS011;6881;49.962;7.718;2023-06-24T15:28:28;5.57;;;5.17;;
3781;SDS011;6881;49.962;7.718;2023-06-24T15:30:54;6.13;;;5.00;;
3781;SDS011;6881;49.962;7.718;2023-06-24T15:33:20;5.63;;;5.13;;
3781;SDS011;6881;49.962;7.718;2023-06-24T15:35:45;5.47;;;5.00;;
3781;SDS011;6881;49.962;7.718;2023-06-24T15:38:10;6.30;;;5.80;;